Create Tblcommutelog Verified Points Advance Search
| # | Trip ID | Id Commuter | Trip Date | Trip Num | Current Lat | Current Lng | Delta Distance | Current Time | Activity | Activity Confidence | Current Speed | |
|---|---|---|---|---|---|---|---|---|---|---|---|---|
| 72721 | 250409_779684_16420702_0640 | 779684 | (not set) | (not set) | 39.038801034798 | -76.986723194285 | 31.2699 | 2025-04-09 11:41:03.284 | in_vehicle | 100 | 3.0532781388862 | |
| 72722 | 250409_783893_16465223_0707 | 783893 | (not set) | (not set) | 38.886222491902 | -77.098693135452 | 4.0584 | 2025-04-09 11:41:05.035 | in_vehicle | 100 | -0.44703925898772 | |
| 72723 | 250409_752246_16512995_0735 | 752246 | (not set) | (not set) | 38.873839829681 | -76.843517601088 | 3.7477 | 2025-04-09 11:41:06.243 | in_vehicle | 100 | 5.4717605300097 | |
| 72724 | 250409_738572_16489587_0710 | 738572 | (not set) | (not set) | 38.914643405024 | -76.932738817115 | 23.5852 | 2025-04-09 11:41:06.287 | in_vehicle | 100 | 2.2486074727083 | |
| 72725 | 250409_781731_16460442_0728 | 781731 | (not set) | (not set) | 38.935058846592 | -76.964067143942 | 0.8224 | 2025-04-09 11:41:08.194 | on_bicycle | 100 | 1.5735781916368 | |
| 72726 | 250409_767309_6423049_0649 | 767309 | (not set) | (not set) | 38.895982161783 | -77.045908821102 | 14.2741 | 2025-04-09 11:41:08.371 | on_foot | 100 | 0.76890752545889 | |
| 72727 | 250409_775339_16505279_0728 | 775339 | (not set) | (not set) | 38.962648616496 | -77.427673547087 | 1.5735 | 2025-04-09 11:41:11.569 | in_vehicle | 100 | 4.4033367010291 | |
| 72728 | 250409_752246_16512995_0735 | 752246 | (not set) | (not set) | 38.875200877704 | -76.843544946575 | 3.8416 | 2025-04-09 11:41:16.205 | in_vehicle | 100 | 7.7650719286168 | |
| 72729 | 250409_782776_16491065_0728 | 782776 | (not set) | (not set) | 38.81456606231 | -77.053078472517 | 0.3075 | 2025-04-09 11:41:16.78 | still | 33 | -0.44703925898772 | |
| 72730 | 250409_782776_16491065_0728 | 782776 | (not set) | (not set) | 38.827438566355 | -77.046531596373 | 1.9408 | 2025-04-09 11:41:16.792 | still | 33 | -0.44703925898772 | |
| 72731 | 250409_738572_16489587_0710 | 738572 | (not set) | (not set) | 38.913994425296 | -76.93296652736 | 23.6316 | 2025-04-09 11:41:19.514 | in_vehicle | 100 | 3.1069228499647 | |
| 72732 | 250409_755366_16487607_0733 | 755366 | (not set) | (not set) | 38.840068040177 | -77.053299822887 | 0.7098 | 2025-04-09 11:41:23.439 | on_bicycle | 100 | 2.3022521837868 | |
| 72733 | 250409_776642_16512046_0741 | 776642 | (not set) | (not set) | 38.798224836851 | -77.19976277105 | 0 | 2025-04-09 11:41:24.731 | in_vehicle | 100 | 10.970343415559 | |
| 72734 | 250409_776642_16512046_0741 | 776642 | (not set) | (not set) | 38.798224836851 | -77.19976277105 | 0 | 2025-04-09 11:41:24.852 | in_vehicle | 100 | 10.970343415559 | |
| 72735 | 250409_768224_16489269_0734 | 768224 | (not set) | (not set) | 38.811431658023 | -77.048006956714 | 0.3459 | 2025-04-09 11:41:25.48 | on_foot | 100 | 0.4917431848865 | |
| 72736 | 250409_775339_16505279_0728 | 775339 | (not set) | (not set) | 38.961233392842 | -77.427861005487 | 1.6716 | 2025-04-09 11:41:25.661 | still | 33 | 5.2124777597969 | |
| 72737 | 250409_779684_16420702_0640 | 779684 | (not set) | (not set) | 39.038943751176 | -76.985541836864 | 31.3342 | 2025-04-09 11:41:26.47 | in_vehicle | 100 | 1.5422854435076 | |
| 72738 | 250409_752246_16512995_0735 | 752246 | (not set) | (not set) | 38.877061532276 | -76.843583718691 | 3.97 | 2025-04-09 11:41:28.26 | in_vehicle | 100 | 8.3328117875312 | |
| 72739 | 250409_107574_16500693_0700 | 107574 | (not set) | (not set) | 38.920902724816 | -76.996125353932 | 11.7136 | 2025-04-09 11:41:29.171 | in_vehicle | 100 | 5.1901257968475 | |
| 72740 | 250409_766460_16504368_0720 | 766460 | (not set) | (not set) | 38.948122056115 | -77.079503188165 | 5.2487 | 2025-04-09 11:41:45.373 | on_foot | 100 | -0.44703925898772 |